createdAt,value
2022-08-20T00:04:21.321Z,20.51
2022-08-20T00:09:23.225Z,20.27
2022-08-20T00:14:24.862Z,20.20
2022-08-20T00:19:27.132Z,20.35
2022-08-20T00:24:28.848Z,20.34
2022-08-20T00:29:31.077Z,20.12
2022-08-20T00:34:32.791Z,20.16
2022-08-20T00:39:35.234Z,20.20
2022-08-20T00:44:43.918Z,20.11
2022-08-20T00:49:45.571Z,20.03
2022-08-20T00:54:51.878Z,19.81
2022-08-20T00:59:53.464Z,20.04
2022-08-20T01:04:56.642Z,19.87
2022-08-20T01:10:00.553Z,19.74
2022-08-20T01:15:04.506Z,19.80
2022-08-20T01:20:12.025Z,19.72
2022-08-20T01:25:34.246Z,19.51
2022-08-20T01:30:37.554Z,19.56
2022-08-20T01:35:41.277Z,19.50
2022-08-20T01:40:57.999Z,19.44
2022-08-20T01:46:00.192Z,19.38
2022-08-20T01:51:07.402Z,19.55
2022-08-20T01:56:11.947Z,19.49
2022-08-20T02:01:45.819Z,19.41
2022-08-20T02:06:56.652Z,19.35
2022-08-20T02:11:59.260Z,19.15
2022-08-20T02:17:01.158Z,19.30
2022-08-20T02:22:08.915Z,19.25
2022-08-20T02:27:10.633Z,19.25
2022-08-20T02:32:32.322Z,19.12
2022-08-20T02:37:35.500Z,19.14
2022-08-20T02:42:38.744Z,19.11
2022-08-20T02:47:40.825Z,18.97
2022-08-20T02:52:42.692Z,19.08
2022-08-20T02:57:55.585Z,19.14
2022-08-20T03:03:01.154Z,19.09
2022-08-20T03:08:04.013Z,18.99
2022-08-20T03:13:06.867Z,18.86
2022-08-20T03:18:08.868Z,18.78
2022-08-20T03:23:10.693Z,18.99
2022-08-20T03:28:13.495Z,18.98
2022-08-20T03:33:16.443Z,18.90
2022-08-20T03:38:21.588Z,18.83
2022-08-20T03:43:35.549Z,18.86
2022-08-20T03:48:37.696Z,18.81
2022-08-20T03:53:39.315Z,18.87
2022-08-20T03:58:40.896Z,18.92
2022-08-20T04:03:42.626Z,18.78
2022-08-20T04:08:44.280Z,18.87
2022-08-20T04:13:45.858Z,18.76
2022-08-20T04:18:58.645Z,18.80
2022-08-20T04:24:06.171Z,18.83
2022-08-20T04:29:08.375Z,18.93
2022-08-20T04:34:10.324Z,18.85
2022-08-20T04:39:11.903Z,18.73
2022-08-20T04:44:13.678Z,18.82
2022-08-20T04:49:15.544Z,18.68
2022-08-20T04:54:17.136Z,18.73
2022-08-20T04:59:18.722Z,18.63
2022-08-20T05:04:20.483Z,18.73
2022-08-20T05:09:22.057Z,18.57
2022-08-20T05:14:23.657Z,18.52
2022-08-20T05:19:25.560Z,18.43
2022-08-20T05:24:27.517Z,18.40
2022-08-20T05:29:29.114Z,18.37
2022-08-20T05:34:30.762Z,18.42
2022-08-20T05:39:37.240Z,18.37
2022-08-20T05:44:39.232Z,18.48
2022-08-20T05:49:40.925Z,18.47
2022-08-20T05:54:42.506Z,18.40
2022-08-20T05:59:44.134Z,18.39
2022-08-20T06:04:45.794Z,18.27
2022-08-20T06:09:57.629Z,18.48
2022-08-20T06:14:59.396Z,18.33
2022-08-20T06:20:04.875Z,18.51
2022-08-20T06:25:08.325Z,18.43
2022-08-20T06:30:14.021Z,18.64
2022-08-20T06:35:19.748Z,18.49
2022-08-20T06:40:27.436Z,18.43
2022-08-20T06:45:31.936Z,18.26
2022-08-20T06:50:47.094Z,18.35
2022-08-20T06:55:54.826Z,18.37
2022-08-20T07:00:56.525Z,18.37
2022-08-20T07:05:59.447Z,18.45
2022-08-20T07:11:02.072Z,18.29
2022-08-20T07:16:05.057Z,18.41
2022-08-20T07:21:06.779Z,18.36
2022-08-20T07:26:08.605Z,18.36
2022-08-20T07:31:29.055Z,18.41
2022-08-20T07:36:33.398Z,18.48
2022-08-20T07:41:35.032Z,18.49
2022-08-20T07:46:36.895Z,18.42
2022-08-20T07:51:38.510Z,18.63
2022-08-20T07:56:40.127Z,18.51
2022-08-20T08:01:42.036Z,18.83
2022-08-20T08:06:45.336Z,19.00
2022-08-20T08:11:50.435Z,19.20
2022-08-20T08:16:55.363Z,19.22
2022-08-20T08:21:58.732Z,19.10
2022-08-20T08:27:00.515Z,19.09
2022-08-20T08:32:03.812Z,19.12
2022-08-20T08:37:06.082Z,19.34
2022-08-20T08:42:25.990Z,19.25
2022-08-20T08:47:34.671Z,19.32
2022-08-20T08:52:41.077Z,19.25
2022-08-20T08:57:42.646Z,19.32
2022-08-20T09:03:33.565Z,19.35
2022-08-20T09:08:54.024Z,19.26
2022-08-20T09:13:56.355Z,19.29
2022-08-20T09:18:58.105Z,19.39
2022-08-20T09:23:59.817Z,19.24
2022-08-20T09:29:01.455Z,19.31
2022-08-20T09:34:03.431Z,19.39
2022-08-20T09:39:05.037Z,19.36
2022-08-20T09:44:06.594Z,19.45
2022-08-20T09:49:08.940Z,19.40
2022-08-20T09:54:12.191Z,19.48
2022-08-20T09:59:15.478Z,19.70
2022-08-20T10:04:17.137Z,19.65
2022-08-20T10:09:19.004Z,19.87
2022-08-20T10:14:20.690Z,20.05
2022-08-20T10:19:22.284Z,19.99
2022-08-20T10:24:26.512Z,19.88
2022-08-20T10:29:29.517Z,19.81
2022-08-20T10:34:31.173Z,19.74
2022-08-20T10:39:32.882Z,19.66
2022-08-20T10:44:34.785Z,19.58
2022-08-20T10:49:36.488Z,19.60
2022-08-20T10:54:42.115Z,19.63
2022-08-20T10:59:45.837Z,19.48
2022-08-20T11:04:48.722Z,19.54
2022-08-20T11:09:50.825Z,19.49
2022-08-20T11:14:53.718Z,19.37
2022-08-20T11:19:56.378Z,19.26
2022-08-20T11:24:58.069Z,19.33
2022-08-20T11:30:00.047Z,19.25
2022-08-20T11:35:13.775Z,19.26
2022-08-20T11:40:24.371Z,19.23
2022-08-20T11:45:26.242Z,19.37
2022-08-20T11:50:28.013Z,19.32
2022-08-20T11:55:30.425Z,19.47
2022-08-20T12:00:34.310Z,19.59
2022-08-20T12:05:36.722Z,19.55
2022-08-20T12:10:38.741Z,19.53
2022-08-20T12:15:40.435Z,19.49
2022-08-20T12:20:42.164Z,19.51
2022-08-20T12:25:43.758Z,19.29
2022-08-20T12:30:45.436Z,19.32
2022-08-20T12:35:47.100Z,19.36
2022-08-20T12:40:48.761Z,19.34
2022-08-20T12:45:50.371Z,19.35
2022-08-20T12:50:52.842Z,19.39
2022-08-20T12:55:54.653Z,19.36
2022-08-20T13:00:56.245Z,19.38
2022-08-20T13:06:01.194Z,19.34
2022-08-20T13:11:02.841Z,19.35
2022-08-20T13:16:04.571Z,19.40
2022-08-20T13:21:06.282Z,19.37
2022-08-20T13:26:08.216Z,19.40
2022-08-20T13:31:09.884Z,19.51
2022-08-20T13:36:12.388Z,19.51
2022-08-20T13:41:14.128Z,19.39
2022-08-20T13:46:15.776Z,19.48
2022-08-20T13:51:19.034Z,19.56
2022-08-20T13:56:20.926Z,19.52
2022-08-20T14:01:22.558Z,19.53
2022-08-20T14:06:24.345Z,19.73
2022-08-20T14:11:25.963Z,19.62
2022-08-20T14:16:28.508Z,19.68
2022-08-20T14:21:31.243Z,19.59
2022-08-20T14:26:32.819Z,19.47
2022-08-20T14:31:34.455Z,19.47
2022-08-20T14:36:36.064Z,19.67
2022-08-20T14:41:37.683Z,19.60
2022-08-20T14:46:39.245Z,19.35
2022-08-20T14:51:40.869Z,19.29
2022-08-20T14:56:42.563Z,19.35
2022-08-20T15:01:44.290Z,19.39
2022-08-20T15:06:46.897Z,19.38
2022-08-20T15:11:48.725Z,19.35
2022-08-20T15:16:50.434Z,19.58
2022-08-20T15:21:52.015Z,19.62
2022-08-20T15:26:53.699Z,19.63
2022-08-20T15:31:55.918Z,19.52
2022-08-20T15:36:57.708Z,19.22
2022-08-20T15:41:59.308Z,19.04
2022-08-20T15:47:16.295Z,19.36
2022-08-20T15:52:18.216Z,19.26
2022-08-20T15:57:42.712Z,19.26
2022-08-20T16:03:04.310Z,19.11
2022-08-20T16:08:12.461Z,19.08
2022-08-20T16:13:38.715Z,19.21
2022-08-20T16:18:41.337Z,19.24
2022-08-20T16:23:44.076Z,19.25
2022-08-20T16:29:13.562Z,19.18
2022-08-20T16:34:33.155Z,19.09
2022-08-20T16:39:58.540Z,19.15
2022-08-20T16:45:00.888Z,19.03
2022-08-20T16:50:06.977Z,18.83
2022-08-20T16:55:08.930Z,18.84
2022-08-20T17:00:19.768Z,18.86
2022-08-20T17:05:23.259Z,18.82
2022-08-20T17:10:52.323Z,18.84
2022-08-20T17:16:15.157Z,18.95
2022-08-20T17:21:24.722Z,18.96
2022-08-20T17:26:43.173Z,18.87
2022-08-20T17:31:48.729Z,19.03
2022-08-20T17:36:53.237Z,18.79
2022-08-20T17:42:05.694Z,18.76
2022-08-20T17:47:14.122Z,18.94
2022-08-20T17:52:34.268Z,18.98
2022-08-20T17:57:40.797Z,18.94
2022-08-20T18:02:43.596Z,18.89
2022-08-20T18:07:56.375Z,18.72
2022-08-20T18:13:09.599Z,18.64
2022-08-20T18:18:32.820Z,18.60
2022-08-20T18:23:43.142Z,18.51
2022-08-20T18:28:56.567Z,18.54
2022-08-20T18:34:09.368Z,18.52
2022-08-20T18:39:25.723Z,18.45
2022-08-20T18:44:35.271Z,18.55
2022-08-20T18:49:40.687Z,18.51
2022-08-20T18:54:54.369Z,18.61
2022-08-20T19:00:14.502Z,18.84
2022-08-20T19:05:26.354Z,18.83
2022-08-20T19:10:49.538Z,18.69
2022-08-20T19:15:58.463Z,18.58
2022-08-20T19:21:03.824Z,18.58
2022-08-20T19:26:24.950Z,18.50
2022-08-20T19:31:33.343Z,18.36
2022-08-20T19:36:36.425Z,18.29
2022-08-20T19:41:49.794Z,18.33
2022-08-20T19:46:52.324Z,18.52
2022-08-20T19:52:09.010Z,18.47
2022-08-20T19:57:11.254Z,18.40
2022-08-20T20:02:20.621Z,18.35
2022-08-20T20:07:37.598Z,18.32
2022-08-20T20:12:40.039Z,18.38
2022-08-20T20:17:42.001Z,18.45
2022-08-20T20:23:03.137Z,18.36
2022-08-20T20:28:21.761Z,18.27
2022-08-20T20:33:39.867Z,18.35
2022-08-20T20:38:56.268Z,18.28
2022-08-20T20:44:01.709Z,18.22
2022-08-20T20:49:09.504Z,18.33
2022-08-20T20:54:42.172Z,18.19
2022-08-20T20:59:45.300Z,18.12
2022-08-20T21:04:49.520Z,18.12
2022-08-20T21:09:54.650Z,18.12
2022-08-20T21:14:56.336Z,18.16
2022-08-20T21:20:00.895Z,18.24
2022-08-20T21:25:03.971Z,18.19
2022-08-20T21:30:06.266Z,18.10
2022-08-20T21:35:09.768Z,18.12
2022-08-20T21:40:12.749Z,18.08
2022-08-20T21:45:18.384Z,18.07
2022-08-20T21:50:21.343Z,18.07
2022-08-20T21:55:23.085Z,18.08
2022-08-20T22:00:46.415Z,18.11
2022-08-20T22:05:48.555Z,18.18
2022-08-20T22:10:53.350Z,18.34
2022-08-20T22:15:54.993Z,18.34
2022-08-20T22:20:57.304Z,18.29
2022-08-20T22:25:58.893Z,18.38
2022-08-20T22:31:00.821Z,18.44
2022-08-20T22:36:04.836Z,18.28
2022-08-20T22:41:09.720Z,18.46
2022-08-20T22:46:14.806Z,18.31
2022-08-20T22:51:34.804Z,18.25
2022-08-20T22:56:37.289Z,18.17
2022-08-20T23:01:39.364Z,18.08
2022-08-20T23:06:41.894Z,18.04
2022-08-20T23:11:43.547Z,18.06
2022-08-20T23:16:48.886Z,18.18
2022-08-20T23:21:51.473Z,18.19
2022-08-20T23:26:53.597Z,18.07
2022-08-20T23:31:56.442Z,18.16
2022-08-20T23:37:01.027Z,18.15
2022-08-20T23:42:03.579Z,18.09
2022-08-20T23:47:05.449Z,18.04
2022-08-20T23:52:07.048Z,18.40
2022-08-20T23:57:08.727Z,18.41
